createdAt,value
2023-03-23T00:01:03.780Z,0
2023-03-23T00:07:23.810Z,0
2023-03-23T00:13:46.733Z,0
2023-03-23T00:20:06.792Z,0
2023-03-23T00:26:29.819Z,0
2023-03-23T00:32:49.797Z,0
2023-03-23T00:39:12.804Z,0
2023-03-23T00:45:32.790Z,0
2023-03-23T00:51:55.809Z,0
2023-03-23T00:58:15.785Z,0
2023-03-23T01:04:38.747Z,0
2023-03-23T01:10:58.775Z,0
2023-03-23T01:17:21.813Z,0
2023-03-23T01:23:41.836Z,0
2023-03-23T01:30:04.736Z,0
2023-03-23T01:36:24.762Z,0
2023-03-23T01:42:47.800Z,0
2023-03-23T01:49:07.765Z,0
2023-03-23T01:55:30.837Z,0
2023-03-23T02:01:50.775Z,0
2023-03-23T02:08:13.768Z,0
2023-03-23T02:14:33.799Z,0
2023-03-23T02:20:56.772Z,0
2023-03-23T02:27:16.813Z,0
2023-03-23T02:33:39.832Z,0
2023-03-23T02:39:59.803Z,0
2023-03-23T02:46:22.734Z,0
2023-03-23T02:52:42.888Z,0
2023-03-23T02:59:05.860Z,0
2023-03-23T03:05:25.738Z,0
2023-03-23T03:11:48.799Z,0
2023-03-23T03:18:08.738Z,0
2023-03-23T03:24:31.819Z,0
2023-03-23T03:30:51.836Z,0
2023-03-23T03:37:14.767Z,0
2023-03-23T03:43:34.787Z,0
2023-03-23T03:49:57.853Z,0
2023-03-23T03:56:17.761Z,0
2023-03-23T04:02:40.770Z,0
2023-03-23T04:09:07.732Z,0
2023-03-23T04:15:23.866Z,0
2023-03-23T04:21:43.819Z,0
2023-03-23T04:44:31.791Z,0
2023-03-23T04:50:55.801Z,0
2023-03-23T04:57:14.759Z,0
2023-03-23T05:03:37.784Z,0
2023-03-23T05:09:57.788Z,0
2023-03-23T05:16:20.775Z,0
2023-03-23T05:22:40.832Z,0
2023-03-23T05:29:03.788Z,0
2023-03-23T05:35:23.769Z,0
2023-03-23T05:41:47.348Z,0
2023-03-23T05:48:06.766Z,5.62
2023-03-23T05:54:29.757Z,0
2023-03-23T06:00:49.780Z,0
2023-03-23T06:07:12.765Z,0
2023-03-23T06:13:32.785Z,5.62
2023-03-23T06:19:55.797Z,5.62
2023-03-23T06:26:15.786Z,11.25
2023-03-23T06:32:38.858Z,22.5
2023-03-23T06:38:58.800Z,16.88
2023-03-23T06:45:21.846Z,22.5
2023-03-23T06:51:41.762Z,22.5
2023-03-23T06:58:04.763Z,28.12
2023-03-23T07:04:24.822Z,22.5
2023-03-23T07:10:47.763Z,22.5
2023-03-23T07:17:07.856Z,22.5
2023-03-23T07:23:30.772Z,28.12
2023-03-23T07:29:50.814Z,33.75
2023-03-23T07:36:13.827Z,28.12
2023-03-23T07:42:33.768Z,22.5
2023-03-23T07:48:56.821Z,33.75
2023-03-23T07:55:16.855Z,33.75
2023-03-23T08:01:39.751Z,39.38
2023-03-23T08:07:59.797Z,39.38
2023-03-23T08:14:22.755Z,39.38
2023-03-23T08:20:42.827Z,45
2023-03-23T08:27:05.729Z,39.38
2023-03-23T08:33:25.766Z,45
2023-03-23T08:39:48.811Z,33.75
2023-03-23T08:46:08.737Z,39.38
2023-03-23T08:52:31.842Z,45
2023-03-23T08:58:51.749Z,50.62
2023-03-23T09:05:14.774Z,50.62
2023-03-23T09:11:34.753Z,50.62
2023-03-23T09:17:57.724Z,56.25
2023-03-23T09:24:17.748Z,45
2023-03-23T09:30:51.400Z,33.75
2023-03-23T09:37:00.805Z,28.12
2023-03-23T09:43:23.785Z,56.25
2023-03-23T09:49:43.767Z,33.75
2023-03-23T10:06:11.791Z,28.12
2023-03-23T10:12:32.045Z,78.75
2023-03-23T10:18:55.762Z,84.38
2023-03-23T10:25:15.849Z,90
2023-03-23T10:31:38.758Z,45
2023-03-23T10:37:58.813Z,22.5
2023-03-23T10:44:21.869Z,16.88
2023-03-23T10:50:41.765Z,33.75
2023-03-23T10:57:04.745Z,67.5
2023-03-23T11:03:24.806Z,90
2023-03-23T11:09:47.850Z,33.75
2023-03-23T11:16:07.753Z,16.88
2023-03-23T11:22:30.808Z,39.38
2023-03-23T11:28:50.837Z,39.38
2023-03-23T11:35:16.282Z,73.12
2023-03-23T11:41:33.829Z,106.88
2023-03-23T11:47:56.756Z,118.12
2023-03-23T11:54:16.749Z,123.75
2023-03-23T12:00:39.813Z,129.38
2023-03-23T12:07:00.027Z,90
2023-03-23T12:13:22.822Z,95.62
2023-03-23T12:19:42.798Z,118.12
2023-03-23T12:26:05.843Z,84.38
2023-03-23T12:32:25.762Z,95.62
2023-03-23T12:38:48.846Z,50.62
2023-03-23T12:45:08.834Z,61.88
2023-03-23T12:51:31.756Z,39.38
2023-03-23T12:57:51.806Z,28.12
2023-03-23T13:04:14.749Z,28.12
2023-03-23T13:10:34.785Z,22.5
2023-03-23T13:16:57.767Z,28.12
2023-03-23T13:23:17.771Z,56.25
2023-03-23T13:29:40.802Z,56.25
2023-03-23T13:36:02.621Z,50.62
2023-03-23T13:42:23.765Z,45
2023-03-23T13:48:43.816Z,39.38
2023-03-23T13:55:06.864Z,56.25
2023-03-23T14:01:26.797Z,28.12
2023-03-23T14:07:49.745Z,56.25
2023-03-23T14:14:09.845Z,39.38
2023-03-23T14:20:33.039Z,28.12
2023-03-23T14:26:52.776Z,39.38
2023-03-23T14:33:15.821Z,16.88
2023-03-23T14:39:35.750Z,28.12
2023-03-23T14:45:58.798Z,22.5
2023-03-23T14:52:18.802Z,16.88
2023-03-23T14:58:41.745Z,16.88
2023-03-23T15:05:03.001Z,22.5
2023-03-23T15:11:25.770Z,22.5
2023-03-23T15:35:12.593Z,56.25
2023-03-23T15:41:26.777Z,39.38
2023-03-23T15:47:49.782Z,61.88
2023-03-23T15:54:14.070Z,61.88
2023-03-23T16:00:32.784Z,56.25
2023-03-23T16:06:52.752Z,67.5
2023-03-23T16:13:15.804Z,56.25
2023-03-23T16:19:35.770Z,56.25
2023-03-23T16:25:58.757Z,50.62
2023-03-23T16:32:19.211Z,33.75
2023-03-23T16:38:48.919Z,28.12
2023-03-23T16:45:01.760Z,28.12
2023-03-23T16:51:24.850Z,33.75
2023-03-23T16:57:44.964Z,28.12
2023-03-23T17:04:07.878Z,22.5
2023-03-23T17:10:27.824Z,16.88
2023-03-23T17:16:50.759Z,11.25
2023-03-23T17:23:10.811Z,11.25
2023-03-23T17:29:33.869Z,5.62
2023-03-23T17:35:53.808Z,0
2023-03-23T17:42:16.808Z,0
2023-03-23T17:48:36.797Z,0
2023-03-23T17:54:59.809Z,0
2023-03-23T18:01:19.796Z,0
2023-03-23T18:07:42.821Z,0
2023-03-23T18:14:02.782Z,0
2023-03-23T18:20:25.807Z,0
2023-03-23T18:26:45.897Z,0
2023-03-23T18:33:08.809Z,0
2023-03-23T18:39:28.780Z,0
2023-03-23T18:45:51.779Z,0
2023-03-23T18:52:11.808Z,0
2023-03-23T18:58:34.782Z,0
2023-03-23T19:04:54.762Z,0
2023-03-23T19:11:17.790Z,0
2023-03-23T19:17:37.808Z,0
2023-03-23T19:24:00.856Z,0
2023-03-23T19:30:20.817Z,0
2023-03-23T19:36:45.710Z,0
2023-03-23T19:49:26.780Z,0
2023-03-23T19:55:47.120Z,0
2023-03-23T20:02:09.864Z,0
2023-03-23T20:08:29.838Z,0
2023-03-23T20:14:52.815Z,0
2023-03-23T20:21:12.758Z,0
2023-03-23T20:27:35.778Z,0
2023-03-23T20:34:00.434Z,0
2023-03-23T20:51:24.669Z,0
2023-03-23T20:57:44.783Z,0
2023-03-23T21:04:07.738Z,0
2023-03-23T21:10:27.793Z,0
2023-03-23T21:16:50.750Z,0
2023-03-23T21:23:10.777Z,0
2023-03-23T21:29:33.761Z,0
2023-03-23T21:35:53.782Z,0
2023-03-23T21:42:16.745Z,0
2023-03-23T21:48:36.783Z,0
2023-03-23T21:54:59.763Z,0
2023-03-23T22:01:20.049Z,0
2023-03-23T22:07:42.754Z,0
2023-03-23T22:14:02.758Z,0
2023-03-23T22:20:25.755Z,0
2023-03-23T22:26:45.829Z,0
2023-03-23T22:33:08.767Z,0
2023-03-23T22:39:28.735Z,0
2023-03-23T22:45:51.984Z,0
2023-03-23T22:52:11.749Z,0
2023-03-23T22:58:34.758Z,0
2023-03-23T23:21:31.762Z,0
2023-03-23T23:27:51.784Z,0
2023-03-23T23:34:14.737Z,0
2023-03-23T23:40:34.803Z,0
2023-03-23T23:46:57.754Z,0
2023-03-23T23:53:17.831Z,0
2023-03-23T23:59:40.866Z,0
